createdAt,value
2022-11-22T00:01:34.842Z,6.60
2022-11-22T00:04:01.898Z,6.43
2022-11-22T00:06:29.025Z,6.10
2022-11-22T00:08:55.903Z,6.30
2022-11-22T00:11:22.768Z,5.90
2022-11-22T00:13:49.716Z,6.13
2022-11-22T00:16:16.600Z,5.85
2022-11-22T00:18:43.493Z,5.45
2022-11-22T00:21:10.439Z,5.88
2022-11-22T00:23:37.333Z,5.45
2022-11-22T00:26:04.277Z,4.75
2022-11-22T00:28:31.251Z,4.93
2022-11-22T00:30:58.106Z,4.50
2022-11-22T00:33:25.003Z,3.85
2022-11-22T00:35:51.895Z,4.10
2022-11-22T00:38:18.854Z,3.78
2022-11-22T00:40:45.723Z,3.78
2022-11-22T00:43:12.524Z,3.22
2022-11-22T00:45:42.083Z,2.92
2022-11-22T00:48:09.275Z,2.85
2022-11-22T00:50:36.234Z,2.67
2022-11-22T00:53:03.926Z,2.90
2022-11-22T00:55:30.810Z,2.20
2022-11-22T00:57:57.719Z,2.42
2022-11-22T01:00:24.654Z,2.03
2022-11-22T01:02:51.620Z,1.88
2022-11-22T01:05:18.701Z,1.67
2022-11-22T01:07:45.909Z,1.70
2022-11-22T01:10:12.872Z,1.45
2022-11-22T01:12:39.851Z,1.42
2022-11-22T01:15:07.272Z,1.55
2022-11-22T01:17:34.148Z,1.58
2022-11-22T01:20:01.098Z,1.42
2022-11-22T01:22:28.115Z,1.63
2022-11-22T01:24:54.978Z,1.60
2022-11-22T01:27:21.927Z,1.55
2022-11-22T01:29:48.833Z,1.60
2022-11-22T01:32:15.864Z,1.77
2022-11-22T01:34:42.948Z,1.65
2022-11-22T01:37:09.839Z,1.55
2022-11-22T01:39:36.815Z,1.13
2022-11-22T01:42:03.761Z,1.42
2022-11-22T01:44:33.022Z,1.50
2022-11-22T01:47:14.336Z,1.40
2022-11-22T01:50:16.640Z,1.40
2022-11-22T01:52:43.642Z,1.42
2022-11-22T01:55:12.853Z,1.10
2022-11-22T01:57:42.978Z,1.30
2022-11-22T02:00:16.738Z,1.08
2022-11-22T02:39:52.985Z,1.00
2022-11-22T02:46:33.401Z,0.90
2022-11-22T03:06:58.412Z,1.02
2022-11-22T03:09:52.304Z,1.52
2022-11-22T03:29:48.432Z,1.23
2022-11-22T03:51:23.000Z,0.80
2022-11-22T03:54:10.555Z,0.80
2022-11-22T04:00:19.395Z,0.80
2022-11-22T04:02:52.625Z,1.00
2022-11-22T04:05:47.666Z,0.95
2022-11-22T04:09:09.276Z,1.10
2022-11-22T04:11:37.972Z,1.35
2022-11-22T04:18:17.717Z,1.27
2022-11-22T04:26:49.591Z,1.70
2022-11-22T04:33:51.266Z,1.27
2022-11-22T04:36:18.515Z,1.20
2022-11-22T04:38:45.791Z,1.35
2022-11-22T04:41:19.902Z,1.20
2022-11-22T04:44:05.521Z,1.13
2022-11-22T04:47:44.888Z,1.02
2022-11-22T04:53:51.598Z,1.00
2022-11-22T04:56:22.121Z,1.00
2022-11-22T04:58:51.595Z,0.90
2022-11-22T05:01:19.122Z,0.80
2022-11-22T05:03:46.159Z,0.90
2022-11-22T05:06:14.826Z,1.10
2022-11-22T05:08:42.995Z,0.90
2022-11-22T05:11:10.381Z,1.00
2022-11-22T05:17:03.337Z,0.70
2022-11-22T05:19:30.632Z,0.70
2022-11-22T05:21:57.799Z,0.60
2022-11-22T05:24:24.817Z,0.73
2022-11-22T05:26:59.059Z,0.60
2022-11-22T05:29:28.663Z,8.30
2022-11-22T05:31:55.847Z,1.38
2022-11-22T05:34:22.820Z,0.70
2022-11-22T05:36:49.739Z,0.90
2022-11-22T05:39:16.921Z,1.08
2022-11-22T05:41:56.124Z,1.25
2022-11-22T05:44:24.096Z,0.82
2022-11-22T05:47:20.946Z,0.80
2022-11-22T05:49:51.577Z,0.60
2022-11-22T05:52:18.654Z,0.55
2022-11-22T05:54:45.913Z,0.70
2022-11-22T05:57:13.121Z,0.70
2022-11-22T05:59:49.882Z,0.60
2022-11-22T06:06:17.096Z,1.60
2022-11-22T06:08:47.010Z,1.00
2022-11-22T06:11:17.073Z,1.80
2022-11-22T06:13:45.616Z,1.70
2022-11-22T06:16:13.428Z,1.85
2022-11-22T06:18:41.119Z,1.63
2022-11-22T06:21:12.272Z,1.80
2022-11-22T06:23:42.299Z,1.10
2022-11-22T06:26:12.414Z,1.30
2022-11-22T06:28:40.413Z,2.45
2022-11-22T06:31:31.608Z,1.63
2022-11-22T06:34:00.355Z,0.90
2022-11-22T06:36:29.792Z,0.80
2022-11-22T06:39:11.506Z,0.52
2022-11-22T06:41:42.401Z,0.60
2022-11-22T06:44:15.952Z,0.60
2022-11-22T06:46:43.492Z,0.50
2022-11-22T06:49:31.933Z,0.55
2022-11-22T06:52:02.025Z,0.60
2022-11-22T06:54:37.922Z,0.40
2022-11-22T06:57:05.428Z,0.43
2022-11-22T07:00:03.724Z,0.40
2022-11-22T07:03:00.147Z,0.57
2022-11-22T07:06:02.969Z,0.73
2022-11-22T07:09:12.570Z,0.50
2022-11-22T07:11:56.786Z,0.20
2022-11-22T07:14:42.571Z,0.38
2022-11-22T07:17:17.305Z,0.50
2022-11-22T07:20:03.120Z,1.08
2022-11-22T07:22:44.560Z,0.60
2022-11-22T07:25:26.616Z,0.50
2022-11-22T07:28:06.726Z,0.45
2022-11-22T07:30:33.855Z,0.65
2022-11-22T07:33:00.859Z,0.30
2022-11-22T07:35:28.625Z,0.43
2022-11-22T07:38:04.015Z,0.40
2022-11-22T07:40:31.173Z,0.60
2022-11-22T07:43:05.444Z,0.40
2022-11-22T07:45:35.584Z,0.43
2022-11-22T07:48:02.746Z,0.30
2022-11-22T07:50:30.184Z,0.20
2022-11-22T07:52:58.957Z,0.52
2022-11-22T07:55:34.327Z,0.40
2022-11-22T07:58:12.793Z,0.70
2022-11-22T08:00:48.346Z,0.60
2022-11-22T08:03:27.176Z,0.75
2022-11-22T08:06:08.933Z,0.35
2022-11-22T08:08:39.005Z,0.40
2022-11-22T08:14:06.822Z,0.40
2022-11-22T08:16:39.688Z,0.38
2022-11-22T08:22:48.400Z,0.20
2022-11-22T08:25:30.076Z,0.32
2022-11-22T08:28:17.850Z,0.40
2022-11-22T08:30:45.468Z,0.32
2022-11-22T08:34:03.638Z,0.30
2022-11-22T08:36:31.539Z,0.30
2022-11-22T08:38:59.109Z,0.40
2022-11-22T08:41:34.016Z,0.40
2022-11-22T08:44:10.967Z,0.32
2022-11-22T08:46:38.604Z,0.47
2022-11-22T08:49:45.765Z,0.50
2022-11-22T08:52:42.259Z,0.60
2022-11-22T08:55:25.665Z,0.40
2022-11-22T09:04:03.741Z,0.50
2022-11-22T09:11:09.082Z,0.60
2022-11-22T09:17:46.420Z,0.50
2022-11-22T09:20:32.426Z,0.50
2022-11-22T09:23:01.600Z,0.55
2022-11-22T09:26:21.588Z,0.40
2022-11-22T09:29:13.450Z,0.50
2022-11-22T09:31:42.053Z,0.30
2022-11-22T09:34:09.321Z,0.30
2022-11-22T09:36:36.589Z,0.50
2022-11-22T09:39:06.911Z,0.40
2022-11-22T09:42:02.795Z,0.40
2022-11-22T09:44:47.970Z,0.32
2022-11-22T09:47:37.747Z,0.40
2022-11-22T09:50:53.167Z,0.30
2022-11-22T09:53:44.718Z,0.40
2022-11-22T10:02:17.434Z,0.20
2022-11-22T10:05:35.779Z,0.20
2022-11-22T10:08:18.334Z,0.45
2022-11-22T10:10:45.333Z,0.38
2022-11-22T10:13:19.657Z,0.30
2022-11-22T10:15:57.228Z,0.40
2022-11-22T10:18:54.640Z,0.50
2022-11-22T10:21:21.796Z,0.63
2022-11-22T10:23:48.884Z,0.38
2022-11-22T10:26:32.841Z,0.52
2022-11-22T10:29:30.452Z,0.40
2022-11-22T10:32:11.530Z,0.55
2022-11-22T10:35:18.211Z,0.40
2022-11-22T10:38:00.003Z,0.45
2022-11-22T10:40:45.324Z,0.70
2022-11-22T10:43:22.516Z,0.40
2022-11-22T10:45:58.414Z,0.75
2022-11-22T10:49:00.817Z,0.70
2022-11-22T10:54:31.549Z,0.63
2022-11-22T10:57:17.092Z,0.50
2022-11-22T11:00:05.422Z,0.50
2022-11-22T11:02:54.166Z,0.73
2022-11-22T11:05:26.968Z,0.70
2022-11-22T11:08:09.215Z,0.50
2022-11-22T11:10:44.281Z,0.50
2022-11-22T11:13:25.169Z,0.60
2022-11-22T11:15:56.380Z,0.80
2022-11-22T11:18:47.679Z,0.40
2022-11-22T11:21:26.954Z,0.70
2022-11-22T11:23:53.993Z,0.70
2022-11-22T11:26:27.446Z,1.10
2022-11-22T11:29:51.812Z,1.13
2022-11-22T11:32:33.314Z,0.90
2022-11-22T12:29:17.568Z,1.98
2022-11-22T12:31:48.542Z,1.95
2022-11-22T12:34:37.259Z,2.00
2022-11-22T12:37:18.401Z,2.40
2022-11-22T12:39:53.271Z,2.40
2022-11-22T12:42:30.445Z,1.80
2022-11-22T12:45:10.205Z,2.35
2022-11-22T12:47:44.670Z,2.10
2022-11-22T12:50:38.296Z,2.95
2022-11-22T12:53:16.695Z,2.72
2022-11-22T12:56:35.523Z,2.35
2022-11-22T12:59:11.444Z,2.35
2022-11-22T13:01:44.722Z,2.10
2022-11-22T13:05:00.983Z,2.20
2022-11-22T13:08:21.629Z,2.17
2022-11-22T13:11:40.397Z,2.00
2022-11-22T13:14:30.922Z,2.50
2022-11-22T13:16:59.153Z,3.08
2022-11-22T13:19:28.063Z,2.92
2022-11-22T13:22:22.954Z,3.13
2022-11-22T13:25:02.422Z,3.55
2022-11-22T13:27:31.003Z,2.67
2022-11-22T13:30:00.981Z,3.03
2022-11-22T13:32:35.221Z,4.30
2022-11-22T13:35:14.199Z,3.22
2022-11-22T13:38:10.865Z,2.25
2022-11-22T13:40:53.520Z,2.70
2022-11-22T13:43:23.662Z,3.50
2022-11-22T13:45:54.782Z,4.60
2022-11-22T13:48:40.512Z,3.80
2022-11-22T13:51:08.824Z,3.92
2022-11-22T13:53:38.009Z,2.95
2022-11-22T13:56:17.056Z,3.13
2022-11-22T13:59:13.521Z,2.72
2022-11-22T14:01:40.555Z,4.22
2022-11-22T14:04:16.782Z,4.65
2022-11-22T14:07:28.850Z,6.72
2022-11-22T14:10:02.293Z,4.32
2022-11-22T14:13:05.767Z,3.55
2022-11-22T14:16:32.505Z,2.00
2022-11-22T14:19:36.317Z,1.80
2022-11-22T14:22:47.907Z,1.50
2022-11-22T14:25:38.722Z,1.77
2022-11-22T14:28:34.553Z,1.63
2022-11-22T14:31:23.427Z,1.92
2022-11-22T14:34:17.510Z,1.52
2022-11-22T14:36:45.874Z,1.88
2022-11-22T14:39:56.211Z,1.92
2022-11-22T14:42:43.900Z,2.10
2022-11-22T14:45:11.005Z,2.55
2022-11-22T14:47:53.392Z,2.10
2022-11-22T14:50:31.716Z,2.42
2022-11-22T14:53:18.934Z,3.70
2022-11-22T14:55:47.891Z,2.90
2022-11-22T14:58:25.721Z,2.55
2022-11-22T15:01:17.596Z,5.00
2022-11-22T15:09:17.049Z,2.38
2022-11-22T15:09:23.612Z,5.13
2022-11-22T15:11:25.838Z,1.83
2022-11-22T15:57:31.273Z,5.10
2022-11-22T15:59:58.935Z,5.80
2022-11-22T16:02:32.011Z,7.53
2022-11-22T16:06:07.398Z,5.65
2022-11-22T16:07:50.286Z,4.10
2022-11-22T16:10:24.214Z,7.38
2022-11-22T16:12:52.550Z,6.57
2022-11-22T16:15:30.156Z,8.65
2022-11-22T16:18:13.200Z,5.68
2022-11-22T16:21:05.179Z,5.25
2022-11-22T16:26:39.283Z,15.25
2022-11-22T16:29:29.291Z,12.60
2022-11-22T16:32:21.005Z,7.47
2022-11-22T16:35:28.108Z,12.60
2022-11-22T16:37:51.022Z,17.27
2022-11-22T16:40:25.162Z,11.73
2022-11-22T16:43:24.869Z,12.13
2022-11-22T16:48:52.746Z,12.63
2022-11-22T16:51:34.445Z,8.68
2022-11-22T16:54:31.191Z,8.60
2022-11-22T16:57:21.925Z,9.52
2022-11-22T16:59:58.799Z,11.75
2022-11-22T17:02:42.550Z,9.98
2022-11-22T17:05:24.953Z,9.20
2022-11-22T17:07:54.225Z,6.93
2022-11-22T17:10:22.798Z,5.00
2022-11-22T17:12:49.764Z,7.53
2022-11-22T17:15:19.178Z,8.32
2022-11-22T17:17:46.090Z,9.80
2022-11-22T17:20:14.525Z,8.43
2022-11-22T17:22:43.918Z,8.32
2022-11-22T17:25:14.075Z,10.00
2022-11-22T17:27:41.196Z,8.88
2022-11-22T17:30:08.929Z,10.23
2022-11-22T17:32:37.371Z,7.35
2022-11-22T17:35:04.694Z,7.78
2022-11-22T17:37:31.703Z,7.25
2022-11-22T17:39:58.559Z,8.70
2022-11-22T17:42:25.445Z,12.38
2022-11-22T17:44:52.377Z,8.68
2022-11-22T17:47:19.248Z,10.13
2022-11-22T17:49:46.117Z,11.45
2022-11-22T17:52:13.048Z,11.70
2022-11-22T17:54:40.031Z,9.75
2022-11-22T17:57:09.710Z,7.78
2022-11-22T17:59:36.682Z,5.90
2022-11-22T18:02:03.727Z,8.75
2022-11-22T18:04:30.919Z,14.95
2022-11-22T18:06:58.201Z,12.45
2022-11-22T18:09:25.205Z,9.88
2022-11-22T18:11:52.529Z,8.65
2022-11-22T18:14:19.503Z,10.98
2022-11-22T18:16:46.385Z,9.32
2022-11-22T18:19:13.389Z,7.82
2022-11-22T18:21:40.274Z,11.13
2022-11-22T18:24:09.774Z,13.50
2022-11-22T18:26:41.132Z,14.60
2022-11-22T18:31:56.611Z,9.65
2022-11-22T18:34:24.144Z,13.48
2022-11-22T18:37:00.873Z,10.25
2022-11-22T18:39:34.509Z,11.18
2022-11-22T18:42:02.444Z,9.38
2022-11-22T18:44:29.487Z,8.73
2022-11-22T18:46:56.479Z,7.82
2022-11-22T18:49:23.421Z,9.45
2022-11-22T18:51:50.440Z,8.77
2022-11-22T18:54:18.314Z,7.22
2022-11-22T18:56:45.308Z,6.82
2022-11-22T18:59:12.857Z,6.03
2022-11-22T19:01:40.860Z,6.95
2022-11-22T19:04:08.395Z,9.10
2022-11-22T19:06:35.878Z,10.00
2022-11-22T19:09:02.825Z,7.20
2022-11-22T19:11:31.760Z,6.25
2022-11-22T19:13:58.968Z,5.90
2022-11-22T19:16:29.505Z,6.75
2022-11-22T19:18:57.467Z,8.75
2022-11-22T19:21:27.884Z,9.30
2022-11-22T19:23:55.574Z,7.78
2022-11-22T19:26:25.226Z,6.68
2022-11-22T19:28:55.761Z,6.70
2022-11-22T19:31:29.350Z,6.13
2022-11-22T19:33:57.035Z,6.78
2022-11-22T19:36:32.128Z,6.43
2022-11-22T19:39:02.051Z,6.18
2022-11-22T19:41:29.174Z,7.03
2022-11-22T19:43:56.769Z,8.35
2022-11-22T19:46:24.484Z,10.75
2022-11-22T19:48:56.623Z,10.68
2022-11-22T19:51:24.891Z,10.00
2022-11-22T19:53:59.638Z,8.50
2022-11-22T19:56:30.327Z,7.43
2022-11-22T19:58:58.796Z,6.93
2022-11-22T20:01:27.895Z,6.40
2022-11-22T20:03:57.415Z,9.20
2022-11-22T20:06:24.900Z,8.55
2022-11-22T20:08:54.938Z,7.55
2022-11-22T20:11:21.884Z,7.57
2022-11-22T20:13:50.431Z,11.05
2022-11-22T20:16:25.741Z,4.82
2022-11-22T20:19:07.412Z,5.88
2022-11-22T20:21:36.172Z,5.07
2022-11-22T20:24:04.208Z,6.70
2022-11-22T20:26:32.741Z,5.95
2022-11-22T20:29:07.826Z,5.38
2022-11-22T20:31:39.213Z,4.75
2022-11-22T20:34:06.819Z,4.15
2022-11-22T20:36:35.438Z,3.25
2022-11-22T20:39:06.996Z,6.00
2022-11-22T20:41:38.092Z,4.82
2022-11-22T20:44:11.249Z,4.25
2022-11-22T20:46:38.538Z,6.80
2022-11-22T20:49:05.499Z,6.15
2022-11-22T20:51:35.913Z,4.57
2022-11-22T20:54:03.025Z,6.75
2022-11-22T20:56:30.196Z,4.97
2022-11-22T20:58:57.060Z,5.20
2022-11-22T21:01:26.247Z,5.53
2022-11-22T21:03:54.510Z,4.80
2022-11-22T21:06:24.288Z,4.72
2022-11-22T21:08:51.453Z,4.35
2022-11-22T21:11:23.937Z,4.30
2022-11-22T21:13:51.927Z,5.13
2022-11-22T21:16:25.126Z,4.60
2022-11-22T21:19:05.137Z,4.55
2022-11-22T21:21:38.236Z,8.10
2022-11-22T21:24:06.780Z,12.10
2022-11-22T21:26:36.079Z,24.75
2022-11-22T21:29:04.887Z,14.70
2022-11-22T21:31:36.853Z,10.63
2022-11-22T21:36:30.767Z,6.45
2022-11-22T21:38:57.693Z,4.90
2022-11-22T21:41:41.101Z,3.97
2022-11-22T21:44:09.631Z,4.10
2022-11-22T21:46:36.888Z,5.45
2022-11-22T21:49:09.361Z,6.32
2022-11-22T21:51:36.495Z,7.55
2022-11-22T21:54:06.718Z,7.95
2022-11-22T21:56:33.732Z,6.15
2022-11-22T21:59:00.700Z,6.25
2022-11-22T22:01:27.867Z,8.88
2022-11-22T22:03:55.024Z,4.35
2022-11-22T22:06:22.501Z,4.20
2022-11-22T22:08:49.888Z,4.82
2022-11-22T22:11:17.238Z,4.07
2022-11-22T22:13:44.198Z,3.17
2022-11-22T22:16:23.605Z,2.72
2022-11-22T22:18:50.918Z,2.70
2022-11-22T22:21:19.112Z,2.55
2022-11-22T22:23:46.709Z,2.65
2022-11-22T22:26:16.551Z,2.55
2022-11-22T22:28:45.452Z,3.72
2022-11-22T22:31:21.464Z,3.38
2022-11-22T22:33:51.562Z,3.20
2022-11-22T22:36:18.665Z,4.18
2022-11-22T22:38:45.718Z,11.80
2022-11-22T22:41:13.692Z,12.60
2022-11-22T22:43:43.506Z,5.55
2022-11-22T22:46:13.764Z,3.88
2022-11-22T22:48:41.162Z,10.98
2022-11-22T22:51:12.579Z,3.28
2022-11-22T22:53:39.774Z,3.00
2022-11-22T22:56:07.841Z,3.80
2022-11-22T22:58:35.214Z,2.72
2022-11-22T23:01:29.763Z,2.90
2022-11-22T23:03:58.755Z,2.80
2022-11-22T23:06:28.088Z,2.88
2022-11-22T23:08:55.697Z,2.28
2022-11-22T23:11:49.121Z,2.38
2022-11-22T23:14:18.941Z,3.30
2022-11-22T23:16:45.917Z,2.90
2022-11-22T23:19:12.801Z,2.85
2022-11-22T23:21:39.677Z,3.80
2022-11-22T23:24:07.694Z,12.73
2022-11-22T23:26:34.788Z,9.80
2022-11-22T23:29:01.694Z,9.40
2022-11-22T23:31:28.575Z,7.82
2022-11-22T23:33:55.420Z,11.13
2022-11-22T23:36:23.399Z,12.68
2022-11-22T23:38:50.265Z,8.02
2022-11-22T23:41:22.375Z,2.95
2022-11-22T23:43:54.388Z,3.40
2022-11-22T23:46:22.518Z,2.60
2022-11-22T23:48:54.238Z,3.55
2022-11-22T23:51:21.905Z,3.92
2022-11-22T23:53:48.941Z,4.00
2022-11-22T23:56:21.803Z,4.10
2022-11-22T23:58:49.454Z,4.38
